createdAt,value
2023-02-27T00:01:20.919Z,1.87
2023-02-27T00:03:48.576Z,2.17
2023-02-27T00:06:17.694Z,1.97
2023-02-27T00:08:45.508Z,1.80
2023-02-27T00:11:14.435Z,2.20
2023-02-27T00:13:42.585Z,1.83
2023-02-27T00:16:12.734Z,1.50
2023-02-27T00:18:40.406Z,1.40
2023-02-27T00:21:07.945Z,1.40
2023-02-27T00:23:35.511Z,1.23
2023-02-27T00:26:03.980Z,1.30
2023-02-27T00:28:32.914Z,1.20
2023-02-27T00:31:00.522Z,1.30
2023-02-27T00:33:28.173Z,1.13
2023-02-27T00:35:56.654Z,1.23
2023-02-27T00:38:24.260Z,1.40
2023-02-27T00:40:51.997Z,1.40
2023-02-27T00:43:19.524Z,1.37
2023-02-27T00:45:48.675Z,1.13
2023-02-27T00:48:16.341Z,1.17
2023-02-27T00:50:44.309Z,1.13
2023-02-27T00:53:12.183Z,1.00
2023-02-27T00:55:42.822Z,1.20
2023-02-27T00:58:10.632Z,1.10
2023-02-27T01:00:38.308Z,0.90
2023-02-27T01:03:07.354Z,1.10
2023-02-27T01:05:35.173Z,1.20
2023-02-27T01:08:02.833Z,1.00
2023-02-27T01:10:30.486Z,1.10
2023-02-27T01:12:58.023Z,1.00
2023-02-27T01:15:25.754Z,1.00
2023-02-27T01:17:53.281Z,1.17
2023-02-27T01:20:22.361Z,1.00
2023-02-27T01:22:49.949Z,1.10
2023-02-27T01:25:17.647Z,0.90
2023-02-27T01:27:45.207Z,1.00
2023-02-27T01:30:15.831Z,0.93
2023-02-27T01:32:43.460Z,0.90
2023-02-27T01:35:11.005Z,1.00
2023-02-27T01:37:40.285Z,1.13
2023-02-27T01:40:09.149Z,1.20
2023-02-27T01:42:37.261Z,1.30
2023-02-27T01:45:30.700Z,1.50
2023-02-27T01:48:05.013Z,1.30
2023-02-27T01:50:33.162Z,1.40
2023-02-27T01:53:03.733Z,1.30
2023-02-27T01:55:37.906Z,1.33
2023-02-27T01:58:06.876Z,1.30
2023-02-27T02:00:34.409Z,1.20
2023-02-27T02:03:10.689Z,1.03
2023-02-27T02:05:38.679Z,1.10
2023-02-27T02:08:07.967Z,1.20
2023-02-27T02:10:36.421Z,1.10
2023-02-27T02:13:04.340Z,1.13
2023-02-27T02:15:36.377Z,1.17
2023-02-27T02:18:17.252Z,1.10
2023-02-27T02:21:21.274Z,1.20
2023-02-27T02:24:30.326Z,1.10
2023-02-27T02:27:07.128Z,1.10
2023-02-27T02:30:20.892Z,0.97
2023-02-27T02:33:28.254Z,1.10
2023-02-27T02:36:20.500Z,1.00
2023-02-27T02:39:14.819Z,1.00
2023-02-27T02:41:56.965Z,1.00
2023-02-27T02:44:34.547Z,0.90
2023-02-27T02:47:07.219Z,1.00
2023-02-27T02:49:44.393Z,1.20
2023-02-27T02:52:20.877Z,1.10
2023-02-27T02:54:58.092Z,1.07
2023-02-27T02:57:33.411Z,1.10
2023-02-27T03:00:07.219Z,0.90
2023-02-27T03:02:40.290Z,1.10
2023-02-27T03:05:11.875Z,1.27
2023-02-27T03:07:44.038Z,0.97
2023-02-27T03:10:17.309Z,1.20
2023-02-27T03:12:50.605Z,1.00
2023-02-27T03:15:21.952Z,1.07
2023-02-27T03:17:53.730Z,1.03
2023-02-27T03:20:26.159Z,1.00
2023-02-27T03:22:57.788Z,1.10
2023-02-27T03:25:29.271Z,1.00
2023-02-27T03:28:00.852Z,1.07
2023-02-27T03:30:35.422Z,1.10
2023-02-27T03:33:09.312Z,1.10
2023-02-27T03:35:48.217Z,0.90
2023-02-27T03:38:21.919Z,0.87
2023-02-27T03:40:57.746Z,1.00
2023-02-27T03:43:31.917Z,0.90
2023-02-27T03:46:05.555Z,1.27
2023-02-27T03:48:33.323Z,1.20
2023-02-27T03:51:01.416Z,0.97
2023-02-27T03:53:34.534Z,1.10
2023-02-27T03:56:06.580Z,1.00
2023-02-27T03:58:34.454Z,1.00
2023-02-27T04:01:02.513Z,0.93
2023-02-27T04:03:35.035Z,0.90
2023-02-27T04:06:22.623Z,0.90
2023-02-27T04:08:58.949Z,1.00
2023-02-27T04:11:39.605Z,0.90
2023-02-27T04:14:23.840Z,1.00
2023-02-27T04:17:09.835Z,0.80
2023-02-27T04:19:56.470Z,0.90
2023-02-27T04:22:35.232Z,1.00
2023-02-27T04:25:16.807Z,1.00
2023-02-27T04:27:52.609Z,0.90
2023-02-27T04:30:28.998Z,0.90
2023-02-27T04:33:01.769Z,1.00
2023-02-27T04:35:35.340Z,1.00
2023-02-27T04:38:09.319Z,1.00
2023-02-27T04:40:43.762Z,1.00
2023-02-27T04:43:14.955Z,1.13
2023-02-27T04:45:46.504Z,1.10
2023-02-27T04:48:21.894Z,1.10
2023-02-27T04:50:54.288Z,0.90
2023-02-27T04:53:26.669Z,1.07
2023-02-27T04:55:59.260Z,0.90
2023-02-27T04:58:32.936Z,0.90
2023-02-27T05:01:04.937Z,1.00
2023-02-27T05:03:36.008Z,1.00
2023-02-27T05:06:04.294Z,1.10
2023-02-27T05:08:37.850Z,1.23
2023-02-27T05:11:10.547Z,0.97
2023-02-27T05:13:44.965Z,1.00
2023-02-27T05:16:21.013Z,1.13
2023-02-27T05:18:49.215Z,1.00
2023-02-27T05:21:25.022Z,1.07
2023-02-27T05:24:05.265Z,1.17
2023-02-27T05:26:42.412Z,0.90
2023-02-27T05:29:24.882Z,1.03
2023-02-27T05:31:59.716Z,1.17
2023-02-27T05:34:34.344Z,0.90
2023-02-27T05:37:06.934Z,1.30
2023-02-27T05:39:39.451Z,1.03
2023-02-27T05:42:13.166Z,1.27
2023-02-27T05:44:46.408Z,1.30
2023-02-27T05:47:18.926Z,1.30
2023-02-27T05:49:52.225Z,1.30
2023-02-27T05:52:24.153Z,1.40
2023-02-27T05:54:58.536Z,1.20
2023-02-27T05:57:32.040Z,1.10
2023-02-27T06:00:04.717Z,1.30
2023-02-27T06:02:32.624Z,1.13
2023-02-27T06:05:00.219Z,1.30
2023-02-27T06:07:27.751Z,1.30
2023-02-27T06:09:55.283Z,1.20
2023-02-27T06:12:22.987Z,1.17
2023-02-27T06:14:51.710Z,1.53
2023-02-27T06:17:20.598Z,1.60
2023-02-27T06:19:48.220Z,1.77
2023-02-27T06:22:15.822Z,1.70
2023-02-27T06:24:43.423Z,1.80
2023-02-27T06:27:10.938Z,4.60
2023-02-27T06:29:38.489Z,5.33
2023-02-27T06:32:06.274Z,3.10
2023-02-27T06:34:35.178Z,1.93
2023-02-27T06:37:04.345Z,1.87
2023-02-27T06:39:32.719Z,1.77
2023-02-27T06:42:00.294Z,1.50
2023-02-27T06:44:27.875Z,1.60
2023-02-27T06:46:55.397Z,1.60
2023-02-27T06:49:23.081Z,1.80
2023-02-27T06:51:51.973Z,1.50
2023-02-27T06:54:19.520Z,1.30
2023-02-27T06:56:47.901Z,1.40
2023-02-27T06:59:15.525Z,1.30
2023-02-27T07:01:43.187Z,1.70
2023-02-27T07:04:13.896Z,1.60
2023-02-27T07:07:34.391Z,1.60
2023-02-27T07:09:30.634Z,1.50
2023-02-27T07:11:58.484Z,1.40
2023-02-27T07:14:26.793Z,1.30
2023-02-27T07:16:54.852Z,1.40
2023-02-27T07:19:23.193Z,1.20
2023-02-27T07:21:50.849Z,1.40
2023-02-27T07:24:18.983Z,1.67
2023-02-27T07:26:48.011Z,1.50
2023-02-27T07:29:15.732Z,3.20
2023-02-27T07:31:43.410Z,2.63
2023-02-27T07:34:11.888Z,2.40
2023-02-27T07:36:39.611Z,2.03
2023-02-27T07:39:08.728Z,1.70
2023-02-27T07:41:36.280Z,1.57
2023-02-27T07:44:06.873Z,1.83
2023-02-27T07:46:34.485Z,2.03
2023-02-27T07:49:02.065Z,2.40
2023-02-27T07:51:30.138Z,2.20
2023-02-27T07:53:58.669Z,1.80
2023-02-27T07:56:26.861Z,1.50
2023-02-27T07:58:54.694Z,1.53
2023-02-27T08:01:23.630Z,1.53
2023-02-27T08:03:51.179Z,1.50
2023-02-27T08:06:18.756Z,1.40
2023-02-27T08:08:46.651Z,1.30
2023-02-27T08:11:15.488Z,1.50
2023-02-27T08:13:59.446Z,1.50
2023-02-27T08:16:30.813Z,1.43
2023-02-27T08:18:58.945Z,1.20
2023-02-27T08:21:27.757Z,1.40
2023-02-27T08:23:55.438Z,1.43
2023-02-27T08:26:23.529Z,1.57
2023-02-27T08:28:51.095Z,1.33
2023-02-27T08:31:18.679Z,1.60
2023-02-27T08:33:49.488Z,1.30
2023-02-27T08:36:17.278Z,1.40
2023-02-27T08:38:44.820Z,1.27
2023-02-27T08:41:12.388Z,1.20
2023-02-27T08:43:39.939Z,1.20
2023-02-27T08:46:07.537Z,1.30
2023-02-27T08:48:35.138Z,1.20
2023-02-27T08:51:04.078Z,1.43
2023-02-27T08:53:31.746Z,1.37
2023-02-27T08:55:59.289Z,1.30
2023-02-27T08:58:28.270Z,1.37
2023-02-27T09:00:55.935Z,1.40
2023-02-27T09:03:28.377Z,1.07
2023-02-27T09:05:56.824Z,1.20
2023-02-27T09:08:25.801Z,1.10
2023-02-27T09:10:57.423Z,1.17
2023-02-27T09:13:26.761Z,1.10
2023-02-27T09:15:54.569Z,1.10
2023-02-27T09:18:22.537Z,1.40
2023-02-27T09:20:51.036Z,1.10
2023-02-27T09:23:19.179Z,1.23
2023-02-27T09:25:49.202Z,1.23
2023-02-27T09:28:16.945Z,1.20
2023-02-27T09:30:44.633Z,1.10
2023-02-27T09:33:12.202Z,1.20
2023-02-27T09:35:39.800Z,1.20
2023-02-27T09:38:07.501Z,1.10
2023-02-27T09:40:41.052Z,1.10
2023-02-27T09:43:17.001Z,1.10
2023-02-27T09:45:45.032Z,1.10
2023-02-27T09:48:21.889Z,1.10
2023-02-27T09:50:52.532Z,1.00
2023-02-27T09:53:27.832Z,1.10
2023-02-27T09:55:58.386Z,1.10
2023-02-27T09:58:38.759Z,0.97
2023-02-27T10:01:12.238Z,0.97
2023-02-27T10:03:55.911Z,1.00
2023-02-27T10:06:27.787Z,1.30
2023-02-27T10:09:08.436Z,1.10
2023-02-27T10:11:51.060Z,0.90
2023-02-27T10:14:31.414Z,1.10
2023-02-27T10:17:00.571Z,1.20
2023-02-27T10:19:32.154Z,1.10
2023-02-27T10:22:04.418Z,1.30
2023-02-27T10:24:38.073Z,1.27
2023-02-27T10:27:08.494Z,0.97
2023-02-27T10:29:39.748Z,0.90
2023-02-27T10:32:13.450Z,1.10
2023-02-27T10:34:43.029Z,1.10
2023-02-27T10:37:17.173Z,1.17
2023-02-27T10:39:49.477Z,1.00
2023-02-27T10:42:18.779Z,0.90
2023-02-27T10:44:53.410Z,1.20
2023-02-27T10:47:24.010Z,0.90
2023-02-27T10:49:53.045Z,1.10
2023-02-27T10:52:20.880Z,1.10
2023-02-27T10:54:48.960Z,0.82
2023-02-27T10:57:26.295Z,0.90
2023-02-27T10:59:58.453Z,0.90
2023-02-27T11:02:37.564Z,1.17
2023-02-27T11:05:07.590Z,1.00
2023-02-27T11:07:38.930Z,0.90
2023-02-27T11:10:18.558Z,1.10
2023-02-27T11:13:00.438Z,0.80
2023-02-27T11:15:31.333Z,0.90
2023-02-27T11:18:22.691Z,0.90
2023-02-27T11:20:51.605Z,0.90
2023-02-27T11:23:21.831Z,0.90
2023-02-27T11:25:50.116Z,0.80
2023-02-27T11:28:26.633Z,0.90
2023-02-27T11:31:01.681Z,0.87
2023-02-27T11:33:32.597Z,0.80
2023-02-27T11:36:01.951Z,0.90
2023-02-27T11:38:32.223Z,0.80
2023-02-27T11:41:01.973Z,0.80
2023-02-27T11:43:32.836Z,0.90
2023-02-27T11:46:39.362Z,0.73
2023-02-27T11:48:57.110Z,0.70
2023-02-27T11:51:43.370Z,0.60
2023-02-27T11:54:28.037Z,0.70
2023-02-27T11:56:58.820Z,0.70
2023-02-27T11:59:33.057Z,0.77
2023-02-27T12:02:12.263Z,0.70
2023-02-27T12:04:47.980Z,0.60
2023-02-27T12:07:22.849Z,0.70
2023-02-27T12:09:58.791Z,0.67
2023-02-27T12:12:31.594Z,0.50
2023-02-27T12:15:06.795Z,0.50
2023-02-27T12:17:41.585Z,0.50
2023-02-27T12:20:23.909Z,0.40
2023-02-27T12:22:54.066Z,0.50
2023-02-27T12:25:30.533Z,0.50
2023-02-27T12:28:08.170Z,0.57
2023-02-27T12:30:42.131Z,0.57
2023-02-27T12:33:19.245Z,0.47
2023-02-27T12:35:54.798Z,0.70
2023-02-27T12:38:24.701Z,0.60
2023-02-27T12:41:02.364Z,0.65
2023-02-27T12:43:38.964Z,0.65
2023-02-27T12:46:26.062Z,0.80
2023-02-27T12:49:25.654Z,0.55
2023-02-27T12:52:04.226Z,0.60
2023-02-27T12:54:40.726Z,0.80
2023-02-27T12:57:26.666Z,0.60
2023-02-27T13:00:07.523Z,0.50
2023-02-27T13:02:45.351Z,0.50
2023-02-27T13:05:27.749Z,0.50
2023-02-27T13:08:03.400Z,0.50
2023-02-27T13:10:35.807Z,0.60
2023-02-27T13:13:11.270Z,0.50
2023-02-27T13:15:45.875Z,0.63
2023-02-27T13:18:29.016Z,0.77
2023-02-27T13:21:04.282Z,0.80
2023-02-27T13:23:37.371Z,0.60
2023-02-27T13:26:14.747Z,0.80
2023-02-27T13:28:42.893Z,0.70
2023-02-27T13:31:18.615Z,0.63
2023-02-27T13:33:55.370Z,0.50
2023-02-27T13:36:31.992Z,0.60
2023-02-27T13:38:59.619Z,0.60
2023-02-27T13:41:38.920Z,0.73
2023-02-27T13:44:51.547Z,0.67
2023-02-27T13:47:48.624Z,0.60
2023-02-27T13:50:54.106Z,0.77
2023-02-27T13:53:24.362Z,0.67
2023-02-27T13:56:01.156Z,0.80
2023-02-27T13:58:28.812Z,0.43
2023-02-27T14:00:59.856Z,0.50
2023-02-27T14:03:30.111Z,0.70
2023-02-27T14:06:03.236Z,0.60
2023-02-27T14:08:38.321Z,0.50
2023-02-27T14:11:18.565Z,0.53
2023-02-27T14:14:04.990Z,0.40
2023-02-27T14:16:57.643Z,0.60
2023-02-27T14:19:48.915Z,0.70
2023-02-27T14:22:34.917Z,0.70
2023-02-27T14:25:15.163Z,0.57
2023-02-27T14:27:50.299Z,0.60
2023-02-27T14:30:34.646Z,0.67
2023-02-27T14:33:12.358Z,0.50
2023-02-27T14:35:40.103Z,0.70
2023-02-27T14:38:12.276Z,0.50
2023-02-27T14:40:50.723Z,0.50
2023-02-27T14:43:30.806Z,0.70
2023-02-27T14:46:12.881Z,0.50
2023-02-27T14:48:40.505Z,0.53
2023-02-27T14:51:08.352Z,0.67
2023-02-27T14:53:36.172Z,0.60
2023-02-27T14:56:05.679Z,0.50
2023-02-27T14:58:33.240Z,0.60
2023-02-27T15:01:06.330Z,0.40
2023-02-27T15:03:39.687Z,0.60
2023-02-27T15:06:17.528Z,0.50
2023-02-27T15:08:50.022Z,0.60
2023-02-27T15:11:21.639Z,0.60
2023-02-27T15:13:56.672Z,0.50
2023-02-27T15:16:35.473Z,0.70
2023-02-27T15:19:13.125Z,0.50
2023-02-27T15:21:43.428Z,0.40
2023-02-27T15:24:23.028Z,0.63
2023-02-27T15:26:56.179Z,0.70
2023-02-27T15:29:26.973Z,0.87
2023-02-27T15:31:55.273Z,0.70
2023-02-27T15:34:22.935Z,20.47
2023-02-27T15:36:54.179Z,12.07
2023-02-27T15:39:24.175Z,3.53
2023-02-27T15:41:54.730Z,3.37
2023-02-27T15:44:27.363Z,2.40
2023-02-27T15:46:55.318Z,1.60
2023-02-27T15:49:25.358Z,1.40
2023-02-27T15:52:01.187Z,2.30
2023-02-27T15:54:33.425Z,1.30
2023-02-27T15:57:04.678Z,1.00
2023-02-27T15:59:36.475Z,1.20
2023-02-27T16:02:06.354Z,1.07
2023-02-27T16:04:35.675Z,1.00
2023-02-27T16:07:08.208Z,1.10
2023-02-27T16:09:38.309Z,1.10
2023-02-27T16:12:32.710Z,1.13
2023-02-27T16:15:28.757Z,1.20
2023-02-27T16:17:58.553Z,1.17
2023-02-27T16:20:39.061Z,1.00
2023-02-27T16:23:15.467Z,1.00
2023-02-27T16:25:46.780Z,1.10
2023-02-27T16:28:16.582Z,1.13
2023-02-27T16:30:44.205Z,1.20
2023-02-27T16:33:23.520Z,1.20
2023-02-27T16:35:51.590Z,1.03
2023-02-27T16:38:19.173Z,0.90
2023-02-27T16:40:46.777Z,1.00
2023-02-27T16:43:15.746Z,1.10
2023-02-27T16:45:51.732Z,1.40
2023-02-27T16:48:19.278Z,1.70
2023-02-27T16:50:46.781Z,2.50
2023-02-27T16:53:14.873Z,2.47
2023-02-27T16:55:43.710Z,1.90
2023-02-27T16:58:14.739Z,2.00
2023-02-27T17:00:43.961Z,2.00
2023-02-27T17:03:11.552Z,1.80
2023-02-27T17:05:39.330Z,1.50
2023-02-27T17:08:06.970Z,1.33
2023-02-27T17:10:35.038Z,1.57
2023-02-27T17:13:02.715Z,1.30
2023-02-27T17:15:30.223Z,1.13
2023-02-27T17:17:59.075Z,1.40
2023-02-27T17:20:30.336Z,1.30
2023-02-27T17:22:58.091Z,1.50
2023-02-27T17:25:26.966Z,1.60
2023-02-27T17:27:54.822Z,1.30
2023-02-27T17:30:22.665Z,1.70
2023-02-27T17:32:50.201Z,1.40
2023-02-27T17:35:19.460Z,1.60
2023-02-27T17:37:47.022Z,1.53
2023-02-27T17:40:14.980Z,1.30
2023-02-27T17:42:42.659Z,1.30
2023-02-27T17:45:11.572Z,1.40
2023-02-27T17:47:39.408Z,1.40
2023-02-27T17:50:07.581Z,1.40
2023-02-27T17:52:37.794Z,1.50
2023-02-27T17:55:06.344Z,1.80
2023-02-27T17:57:36.586Z,2.00
2023-02-27T18:00:05.003Z,2.57
2023-02-27T18:02:32.603Z,2.17
2023-02-27T18:05:00.142Z,2.47
2023-02-27T18:07:27.797Z,2.10
2023-02-27T18:09:56.687Z,2.00
2023-02-27T18:12:25.358Z,1.90
2023-02-27T18:14:53.020Z,1.60
2023-02-27T18:17:20.933Z,1.40
2023-02-27T18:19:48.617Z,1.70
2023-02-27T18:22:16.260Z,3.27
2023-02-27T18:24:43.942Z,3.73
2023-02-27T18:27:13.074Z,4.70
2023-02-27T18:29:40.753Z,4.33
2023-02-27T18:32:09.269Z,4.27
2023-02-27T18:34:36.872Z,4.27
2023-02-27T18:37:04.607Z,4.70
2023-02-27T18:39:32.186Z,4.70
2023-02-27T18:41:59.804Z,6.97
2023-02-27T18:44:28.894Z,7.40
2023-02-27T18:46:56.540Z,5.40
2023-02-27T18:49:24.363Z,3.60
2023-02-27T18:51:52.268Z,3.00
2023-02-27T18:54:19.924Z,2.70
2023-02-27T18:56:48.530Z,2.50
2023-02-27T18:59:16.111Z,2.40
2023-02-27T19:01:45.147Z,3.00
2023-02-27T19:04:12.743Z,3.07
2023-02-27T19:06:42.302Z,3.20
2023-02-27T19:09:11.911Z,2.67
2023-02-27T19:11:39.880Z,2.50
2023-02-27T19:14:11.600Z,2.70
2023-02-27T19:16:39.564Z,2.47
2023-02-27T19:19:09.803Z,2.23
2023-02-27T19:21:37.551Z,2.60
2023-02-27T19:24:05.658Z,2.67
2023-02-27T19:26:34.012Z,3.13
2023-02-27T19:29:01.658Z,3.13
2023-02-27T19:31:29.574Z,3.07
2023-02-27T19:33:57.218Z,3.10
2023-02-27T19:36:29.491Z,2.70
2023-02-27T19:38:58.040Z,2.10
2023-02-27T19:41:26.234Z,2.23
2023-02-27T19:43:53.916Z,2.50
2023-02-27T19:46:23.858Z,2.40
2023-02-27T19:48:51.625Z,2.60
2023-02-27T19:51:21.047Z,2.40
2023-02-27T19:53:50.078Z,2.10
2023-02-27T19:56:19.672Z,2.50
2023-02-27T19:58:48.006Z,2.30
2023-02-27T20:01:21.499Z,2.10
2023-02-27T20:03:49.200Z,1.70
2023-02-27T20:06:19.143Z,2.00
2023-02-27T20:08:47.421Z,2.27
2023-02-27T20:11:17.384Z,1.90
2023-02-27T20:13:45.376Z,2.00
2023-02-27T20:16:14.874Z,1.70
2023-02-27T20:18:42.652Z,1.80
2023-02-27T20:21:13.819Z,1.80
2023-02-27T20:23:43.616Z,1.70
2023-02-27T20:26:18.670Z,1.50
2023-02-27T20:28:46.697Z,1.40
2023-02-27T20:31:16.208Z,1.30
2023-02-27T20:33:44.175Z,1.47
2023-02-27T20:36:12.542Z,1.50
2023-02-27T20:38:41.134Z,1.40
2023-02-27T20:41:10.127Z,1.30
2023-02-27T20:43:39.370Z,1.40
2023-02-27T20:46:10.011Z,1.50
2023-02-27T20:48:37.572Z,1.50
2023-02-27T20:51:06.788Z,1.50
2023-02-27T20:53:36.319Z,1.57
2023-02-27T20:56:04.652Z,1.40
2023-02-27T20:58:33.165Z,1.80
2023-02-27T21:01:04.278Z,1.60
2023-02-27T21:03:38.529Z,1.80
2023-02-27T21:06:07.696Z,1.60
2023-02-27T21:08:36.426Z,1.80
2023-02-27T21:11:08.764Z,1.70
2023-02-27T21:13:37.191Z,1.80
2023-02-27T21:16:07.934Z,1.80
2023-02-27T21:18:36.248Z,2.20
2023-02-27T21:21:05.242Z,2.37
2023-02-27T21:23:32.879Z,2.00
2023-02-27T21:26:00.444Z,1.87
2023-02-27T21:28:27.965Z,2.07
2023-02-27T21:30:55.532Z,2.20
2023-02-27T21:33:24.436Z,2.33
2023-02-27T21:35:52.107Z,2.40
2023-02-27T21:38:19.719Z,1.97
2023-02-27T21:40:47.280Z,1.83
2023-02-27T21:43:14.783Z,2.00
2023-02-27T21:45:47.358Z,1.70
2023-02-27T21:48:16.061Z,1.60
2023-02-27T21:50:45.062Z,1.63
2023-02-27T21:53:12.673Z,1.50
2023-02-27T21:55:40.232Z,1.53
2023-02-27T21:58:10.092Z,1.50
2023-02-27T22:00:37.843Z,1.80
2023-02-27T22:03:05.471Z,1.40
2023-02-27T22:05:33.059Z,1.43
2023-02-27T22:08:02.574Z,1.60
2023-02-27T22:10:30.120Z,1.50
2023-02-27T22:12:57.669Z,1.80
2023-02-27T22:15:25.206Z,1.40
2023-02-27T22:17:54.638Z,1.60
2023-02-27T22:20:22.232Z,1.80
2023-02-27T22:22:49.840Z,1.80
2023-02-27T22:25:18.976Z,1.53
2023-02-27T22:27:46.500Z,1.47
2023-02-27T22:30:14.822Z,1.77
2023-02-27T22:32:42.637Z,1.60
2023-02-27T22:35:10.526Z,1.80
2023-02-27T22:37:38.262Z,3.00
2023-02-27T22:40:06.661Z,5.00
2023-02-27T22:42:35.568Z,5.67
2023-02-27T22:45:03.147Z,4.20
2023-02-27T22:47:30.990Z,3.70
2023-02-27T22:49:58.525Z,3.33
2023-02-27T22:52:26.113Z,3.67
2023-02-27T22:54:53.854Z,3.60
2023-02-27T22:57:21.421Z,2.53
2023-02-27T22:59:51.369Z,2.60
2023-02-27T23:02:19.275Z,2.50
2023-02-27T23:04:46.951Z,2.03
2023-02-27T23:07:14.462Z,2.00
2023-02-27T23:09:42.086Z,1.70
2023-02-27T23:12:09.623Z,1.70
2023-02-27T23:14:37.211Z,1.70
2023-02-27T23:17:06.113Z,1.70
2023-02-27T23:19:34.071Z,1.57
2023-02-27T23:22:02.954Z,1.70
2023-02-27T23:24:30.487Z,1.60
2023-02-27T23:26:58.132Z,1.67
2023-02-27T23:29:25.655Z,1.60
2023-02-27T23:31:53.742Z,1.80
2023-02-27T23:34:23.120Z,1.63
2023-02-27T23:36:50.700Z,1.90
2023-02-27T23:39:18.223Z,1.73
2023-02-27T23:41:45.931Z,2.10
2023-02-27T23:44:13.498Z,1.87
2023-02-27T23:46:41.052Z,1.97
2023-02-27T23:49:08.914Z,1.90
2023-02-27T23:51:38.022Z,1.83
2023-02-27T23:54:05.720Z,1.67
2023-02-27T23:56:33.311Z,1.80
2023-02-27T23:59:02.511Z,1.90
